sensor_id;sensor_type;location;lat;lon;timestamp;P1;durP1;ratioP1;P2;durP2;ratioP2
70071;SDS011;57434;42.794;23.302;2022-12-18T00:00:12;15.32;;;6.60;;
70071;SDS011;57434;42.794;23.302;2022-12-18T00:01:22;16.38;;;7.80;;
70071;SDS011;57434;42.794;23.302;2022-12-18T00:02:26;15.53;;;6.90;;
70071;SDS011;57434;42.794;23.302;2022-12-18T00:03:27;17.58;;;7.00;;
70071;SDS011;57434;42.794;23.302;2022-12-18T00:04:29;16.42;;;6.78;;
70071;SDS011;57434;42.794;23.302;2022-12-18T00:05:31;15.75;;;6.50;;
70071;SDS011;57434;42.794;23.302;2022-12-18T00:06:34;13.75;;;6.95;;
70071;SDS011;57434;42.794;23.302;2022-12-18T00:07:37;14.15;;;6.85;;
70071;SDS011;57434;42.794;23.302;2022-12-18T00:08:39;16.25;;;6.32;;
70071;SDS011;57434;42.794;23.302;2022-12-18T00:09:43;16.52;;;6.65;;
70071;SDS011;57434;42.794;23.302;2022-12-18T00:10:44;14.13;;;6.88;;
70071;SDS011;57434;42.794;23.302;2022-12-18T00:11:47;12.48;;;6.35;;
70071;SDS011;57434;42.794;23.302;2022-12-18T00:12:48;14.77;;;7.03;;
70071;SDS011;57434;42.794;23.302;2022-12-18T00:13:51;10.43;;;5.10;;
70071;SDS011;57434;42.794;23.302;2022-12-18T00:14:54;13.50;;;6.15;;
70071;SDS011;57434;42.794;23.302;2022-12-18T00:16:00;15.25;;;6.60;;
70071;SDS011;57434;42.794;23.302;2022-12-18T00:17:03;14.65;;;7.05;;
70071;SDS011;57434;42.794;23.302;2022-12-18T00:18:05;14.65;;;6.95;;
70071;SDS011;57434;42.794;23.302;2022-12-18T00:19:08;16.67;;;7.15;;
70071;SDS011;57434;42.794;23.302;2022-12-18T00:20:11;12.18;;;6.35;;
70071;SDS011;57434;42.794;23.302;2022-12-18T00:21:13;16.13;;;6.18;;
70071;SDS011;57434;42.794;23.302;2022-12-18T00:22:15;16.73;;;7.07;;
70071;SDS011;57434;42.794;23.302;2022-12-18T00:23:17;15.73;;;7.20;;
70071;SDS011;57434;42.794;23.302;2022-12-18T00:24:19;14.98;;;7.40;;
70071;SDS011;57434;42.794;23.302;2022-12-18T00:25:21;14.38;;;6.75;;
70071;SDS011;57434;42.794;23.302;2022-12-18T00:26:25;15.60;;;5.80;;
70071;SDS011;57434;42.794;23.302;2022-12-18T00:27:29;13.23;;;6.50;;
70071;SDS011;57434;42.794;23.302;2022-12-18T00:28:30;16.50;;;7.13;;
70071;SDS011;57434;42.794;23.302;2022-12-18T00:29:32;13.45;;;6.45;;
70071;SDS011;57434;42.794;23.302;2022-12-18T00:30:34;16.25;;;7.38;;
70071;SDS011;57434;42.794;23.302;2022-12-18T00:31:36;14.63;;;6.18;;
70071;SDS011;57434;42.794;23.302;2022-12-18T00:32:39;16.05;;;6.30;;
70071;SDS011;57434;42.794;23.302;2022-12-18T00:33:41;13.77;;;6.80;;
70071;SDS011;57434;42.794;23.302;2022-12-18T00:34:43;10.98;;;5.70;;
70071;SDS011;57434;42.794;23.302;2022-12-18T00:35:45;16.60;;;7.65;;
70071;SDS011;57434;42.794;23.302;2022-12-18T00:36:47;16.08;;;6.82;;
70071;SDS011;57434;42.794;23.302;2022-12-18T00:37:49;14.57;;;5.88;;
70071;SDS011;57434;42.794;23.302;2022-12-18T00:38:51;12.20;;;5.85;;
70071;SDS011;57434;42.794;23.302;2022-12-18T00:39:54;15.45;;;7.53;;
70071;SDS011;57434;42.794;23.302;2022-12-18T00:40:56;14.27;;;6.65;;
70071;SDS011;57434;42.794;23.302;2022-12-18T00:41:58;15.35;;;6.82;;
70071;SDS011;57434;42.794;23.302;2022-12-18T00:43:00;16.85;;;8.07;;
70071;SDS011;57434;42.794;23.302;2022-12-18T00:44:02;16.37;;;7.13;;
70071;SDS011;57434;42.794;23.302;2022-12-18T00:45:04;16.75;;;6.72;;
70071;SDS011;57434;42.794;23.302;2022-12-18T00:46:13;11.38;;;5.90;;
70071;SDS011;57434;42.794;23.302;2022-12-18T00:47:14;18.35;;;6.72;;
70071;SDS011;57434;42.794;23.302;2022-12-18T00:48:16;15.75;;;6.93;;
70071;SDS011;57434;42.794;23.302;2022-12-18T00:49:18;15.48;;;6.68;;
70071;SDS011;57434;42.794;23.302;2022-12-18T00:50:22;14.68;;;6.97;;
70071;SDS011;57434;42.794;23.302;2022-12-18T00:51:25;15.45;;;7.35;;
70071;SDS011;57434;42.794;23.302;2022-12-18T00:52:27;17.63;;;8.02;;
70071;SDS011;57434;42.794;23.302;2022-12-18T00:53:29;13.77;;;6.35;;
70071;SDS011;57434;42.794;23.302;2022-12-18T00:54:30;17.03;;;7.53;;
70071;SDS011;57434;42.794;23.302;2022-12-18T00:55:32;18.90;;;8.00;;
70071;SDS011;57434;42.794;23.302;2022-12-18T00:56:35;18.98;;;7.82;;
70071;SDS011;57434;42.794;23.302;2022-12-18T00:57:50;17.63;;;6.75;;
70071;SDS011;57434;42.794;23.302;2022-12-18T00:58:53;19.55;;;8.82;;
70071;SDS011;57434;42.794;23.302;2022-12-18T00:59:54;16.50;;;7.00;;
70071;SDS011;57434;42.794;23.302;2022-12-18T01:00:56;16.67;;;7.28;;
70071;SDS011;57434;42.794;23.302;2022-12-18T01:01:58;15.68;;;7.55;;
70071;SDS011;57434;42.794;23.302;2022-12-18T01:03:00;14.68;;;6.50;;
70071;SDS011;57434;42.794;23.302;2022-12-18T01:04:02;14.95;;;6.95;;
70071;SDS011;57434;42.794;23.302;2022-12-18T01:05:05;19.43;;;8.37;;
70071;SDS011;57434;42.794;23.302;2022-12-18T01:06:08;17.55;;;7.85;;
70071;SDS011;57434;42.794;23.302;2022-12-18T01:07:12;17.70;;;7.32;;
70071;SDS011;57434;42.794;23.302;2022-12-18T01:08:13;14.68;;;7.95;;
70071;SDS011;57434;42.794;23.302;2022-12-18T01:09:15;21.90;;;8.35;;
70071;SDS011;57434;42.794;23.302;2022-12-18T01:10:17;18.33;;;8.10;;
70071;SDS011;57434;42.794;23.302;2022-12-18T01:11:19;18.17;;;8.32;;
70071;SDS011;57434;42.794;23.302;2022-12-18T01:12:22;15.23;;;6.75;;
70071;SDS011;57434;42.794;23.302;2022-12-18T01:13:24;18.80;;;7.70;;
70071;SDS011;57434;42.794;23.302;2022-12-18T01:14:25;27.13;;;10.00;;
70071;SDS011;57434;42.794;23.302;2022-12-18T01:15:27;23.13;;;9.57;;
70071;SDS011;57434;42.794;23.302;2022-12-18T01:16:29;25.95;;;10.18;;
70071;SDS011;57434;42.794;23.302;2022-12-18T01:17:31;27.45;;;10.05;;
70071;SDS011;57434;42.794;23.302;2022-12-18T01:18:33;22.05;;;8.52;;
70071;SDS011;57434;42.794;23.302;2022-12-18T01:19:34;16.63;;;8.43;;
70071;SDS011;57434;42.794;23.302;2022-12-18T01:20:37;15.98;;;7.88;;
70071;SDS011;57434;42.794;23.302;2022-12-18T01:21:39;19.02;;;8.15;;
70071;SDS011;57434;42.794;23.302;2022-12-18T01:22:41;17.25;;;9.18;;
70071;SDS011;57434;42.794;23.302;2022-12-18T01:23:43;16.20;;;7.32;;
70071;SDS011;57434;42.794;23.302;2022-12-18T01:24:44;19.65;;;7.20;;
70071;SDS011;57434;42.794;23.302;2022-12-18T01:25:46;19.50;;;9.37;;
70071;SDS011;57434;42.794;23.302;2022-12-18T01:26:48;21.08;;;7.93;;
70071;SDS011;57434;42.794;23.302;2022-12-18T01:27:50;19.40;;;8.02;;
70071;SDS011;57434;42.794;23.302;2022-12-18T01:28:53;17.85;;;7.88;;
70071;SDS011;57434;42.794;23.302;2022-12-18T01:29:55;20.05;;;8.65;;
70071;SDS011;57434;42.794;23.302;2022-12-18T01:30:57;15.50;;;6.53;;
70071;SDS011;57434;42.794;23.302;2022-12-18T01:31:59;27.80;;;10.15;;
70071;SDS011;57434;42.794;23.302;2022-12-18T01:33:01;20.70;;;8.40;;
70071;SDS011;57434;42.794;23.302;2022-12-18T01:34:03;17.80;;;6.90;;
70071;SDS011;57434;42.794;23.302;2022-12-18T01:35:06;15.25;;;7.30;;
70071;SDS011;57434;42.794;23.302;2022-12-18T01:36:13;18.57;;;7.00;;
70071;SDS011;57434;42.794;23.302;2022-12-18T01:37:23;12.13;;;5.18;;
70071;SDS011;57434;42.794;23.302;2022-12-18T01:38:25;16.83;;;7.65;;
70071;SDS011;57434;42.794;23.302;2022-12-18T01:39:27;14.75;;;7.63;;
70071;SDS011;57434;42.794;23.302;2022-12-18T01:40:29;18.20;;;7.60;;
70071;SDS011;57434;42.794;23.302;2022-12-18T01:41:31;13.15;;;6.57;;
70071;SDS011;57434;42.794;23.302;2022-12-18T01:42:34;15.20;;;6.20;;
70071;SDS011;57434;42.794;23.302;2022-12-18T01:45:05;13.85;;;6.07;;
70071;SDS011;57434;42.794;23.302;2022-12-18T01:46:07;14.57;;;6.10;;
70071;SDS011;57434;42.794;23.302;2022-12-18T01:47:10;15.03;;;7.23;;
70071;SDS011;57434;42.794;23.302;2022-12-18T01:48:21;12.40;;;5.35;;
70071;SDS011;57434;42.794;23.302;2022-12-18T01:49:23;15.75;;;6.70;;
70071;SDS011;57434;42.794;23.302;2022-12-18T01:51:35;15.02;;;6.88;;
70071;SDS011;57434;42.794;23.302;2022-12-18T01:52:37;15.98;;;7.47;;
70071;SDS011;57434;42.794;23.302;2022-12-18T01:53:42;11.35;;;5.72;;
70071;SDS011;57434;42.794;23.302;2022-12-18T01:54:46;18.52;;;6.35;;
70071;SDS011;57434;42.794;23.302;2022-12-18T01:55:51;18.52;;;7.07;;
70071;SDS011;57434;42.794;23.302;2022-12-18T01:56:57;15.77;;;6.20;;
70071;SDS011;57434;42.794;23.302;2022-12-18T01:57:59;14.67;;;6.37;;
70071;SDS011;57434;42.794;23.302;2022-12-18T01:59:03;11.10;;;5.28;;
70071;SDS011;57434;42.794;23.302;2022-12-18T02:00:12;11.35;;;5.15;;
70071;SDS011;57434;42.794;23.302;2022-12-18T02:01:17;12.77;;;5.75;;
70071;SDS011;57434;42.794;23.302;2022-12-18T02:02:20;13.75;;;6.20;;
70071;SDS011;57434;42.794;23.302;2022-12-18T02:03:22;11.00;;;4.93;;
70071;SDS011;57434;42.794;23.302;2022-12-18T02:04:25;11.55;;;5.43;;
70071;SDS011;57434;42.794;23.302;2022-12-18T02:06:36;12.25;;;4.63;;
70071;SDS011;57434;42.794;23.302;2022-12-18T02:09:28;13.73;;;4.70;;
70071;SDS011;57434;42.794;23.302;2022-12-18T02:10:43;13.48;;;5.50;;
70071;SDS011;57434;42.794;23.302;2022-12-18T02:12:00;12.77;;;6.03;;
70071;SDS011;57434;42.794;23.302;2022-12-18T02:13:32;13.57;;;5.43;;
70071;SDS011;57434;42.794;23.302;2022-12-18T02:14:44;13.45;;;6.22;;
70071;SDS011;57434;42.794;23.302;2022-12-18T02:18:50;14.27;;;6.68;;
70071;SDS011;57434;42.794;23.302;2022-12-18T02:20:10;16.88;;;7.00;;
70071;SDS011;57434;42.794;23.302;2022-12-18T02:23:45;19.35;;;7.85;;
70071;SDS011;57434;42.794;23.302;2022-12-18T02:27:06;16.45;;;6.72;;
70071;SDS011;57434;42.794;23.302;2022-12-18T02:28:11;20.02;;;8.93;;
70071;SDS011;57434;42.794;23.302;2022-12-18T02:30:42;12.80;;;5.55;;
70071;SDS011;57434;42.794;23.302;2022-12-18T02:31:47;16.40;;;7.47;;
70071;SDS011;57434;42.794;23.302;2022-12-18T02:32:53;15.65;;;6.40;;
70071;SDS011;57434;42.794;23.302;2022-12-18T02:33:58;15.03;;;7.00;;
70071;SDS011;57434;42.794;23.302;2022-12-18T02:35:04;15.68;;;6.82;;
70071;SDS011;57434;42.794;23.302;2022-12-18T02:36:09;12.98;;;5.45;;
70071;SDS011;57434;42.794;23.302;2022-12-18T02:37:14;14.68;;;5.85;;
70071;SDS011;57434;42.794;23.302;2022-12-18T02:38:19;12.90;;;5.90;;
70071;SDS011;57434;42.794;23.302;2022-12-18T02:39:22;13.55;;;5.20;;
70071;SDS011;57434;42.794;23.302;2022-12-18T02:40:27;13.90;;;6.68;;
70071;SDS011;57434;42.794;23.302;2022-12-18T02:41:29;15.43;;;5.97;;
70071;SDS011;57434;42.794;23.302;2022-12-18T02:42:32;18.25;;;7.20;;
70071;SDS011;57434;42.794;23.302;2022-12-18T02:43:34;12.93;;;6.75;;
70071;SDS011;57434;42.794;23.302;2022-12-18T02:44:43;15.33;;;6.93;;
70071;SDS011;57434;42.794;23.302;2022-12-18T02:45:48;15.02;;;6.85;;
70071;SDS011;57434;42.794;23.302;2022-12-18T02:46:54;12.93;;;6.15;;
70071;SDS011;57434;42.794;23.302;2022-12-18T02:47:55;17.23;;;8.02;;
70071;SDS011;57434;42.794;23.302;2022-12-18T02:50:30;16.55;;;6.90;;
70071;SDS011;57434;42.794;23.302;2022-12-18T02:51:55;10.82;;;5.32;;
70071;SDS011;57434;42.794;23.302;2022-12-18T02:53:26;13.15;;;5.72;;
70071;SDS011;57434;42.794;23.302;2022-12-18T02:54:41;11.65;;;4.78;;
70071;SDS011;57434;42.794;23.302;2022-12-18T02:57:23;14.37;;;5.80;;
70071;SDS011;57434;42.794;23.302;2022-12-18T02:58:46;9.95;;;4.80;;
70071;SDS011;57434;42.794;23.302;2022-12-18T03:00:28;11.95;;;5.18;;
70071;SDS011;57434;42.794;23.302;2022-12-18T03:01:36;15.00;;;6.57;;
70071;SDS011;57434;42.794;23.302;2022-12-18T03:04:07;15.32;;;5.97;;
70071;SDS011;57434;42.794;23.302;2022-12-18T03:05:16;14.48;;;6.30;;
70071;SDS011;57434;42.794;23.302;2022-12-18T03:06:28;14.25;;;6.35;;
70071;SDS011;57434;42.794;23.302;2022-12-18T03:07:42;12.95;;;5.90;;
70071;SDS011;57434;42.794;23.302;2022-12-18T03:08:58;17.95;;;8.50;;
70071;SDS011;57434;42.794;23.302;2022-12-18T03:10:03;17.10;;;7.57;;
70071;SDS011;57434;42.794;23.302;2022-12-18T03:11:10;14.73;;;5.88;;
70071;SDS011;57434;42.794;23.302;2022-12-18T03:13:27;14.57;;;6.80;;
70071;SDS011;57434;42.794;23.302;2022-12-18T03:14:42;15.40;;;5.90;;
70071;SDS011;57434;42.794;23.302;2022-12-18T03:15:49;21.45;;;7.07;;
70071;SDS011;57434;42.794;23.302;2022-12-18T03:16:54;11.18;;;5.03;;
70071;SDS011;57434;42.794;23.302;2022-12-18T03:18:04;11.77;;;5.63;;
70071;SDS011;57434;42.794;23.302;2022-12-18T03:19:15;17.20;;;7.40;;
70071;SDS011;57434;42.794;23.302;2022-12-18T03:20:21;15.23;;;7.10;;
70071;SDS011;57434;42.794;23.302;2022-12-18T03:21:28;15.50;;;6.73;;
70071;SDS011;57434;42.794;23.302;2022-12-18T03:22:36;12.18;;;4.75;;
70071;SDS011;57434;42.794;23.302;2022-12-18T03:23:40;10.48;;;4.80;;
70071;SDS011;57434;42.794;23.302;2022-12-18T03:24:49;11.75;;;5.32;;
70071;SDS011;57434;42.794;23.302;2022-12-18T03:25:54;14.68;;;5.53;;
70071;SDS011;57434;42.794;23.302;2022-12-18T03:27:09;13.77;;;5.97;;
70071;SDS011;57434;42.794;23.302;2022-12-18T03:28:18;14.55;;;6.80;;
70071;SDS011;57434;42.794;23.302;2022-12-18T03:29:25;12.50;;;5.90;;
70071;SDS011;57434;42.794;23.302;2022-12-18T03:30:37;15.00;;;7.25;;
70071;SDS011;57434;42.794;23.302;2022-12-18T03:31:41;13.48;;;6.45;;
70071;SDS011;57434;42.794;23.302;2022-12-18T03:32:52;15.93;;;7.00;;
70071;SDS011;57434;42.794;23.302;2022-12-18T03:34:19;24.38;;;10.63;;
70071;SDS011;57434;42.794;23.302;2022-12-18T03:35:33;23.30;;;9.10;;
70071;SDS011;57434;42.794;23.302;2022-12-18T03:36:38;17.05;;;8.10;;
70071;SDS011;57434;42.794;23.302;2022-12-18T03:37:40;14.02;;;7.15;;
70071;SDS011;57434;42.794;23.302;2022-12-18T03:38:42;16.00;;;6.93;;
70071;SDS011;57434;42.794;23.302;2022-12-18T03:39:44;16.50;;;7.72;;
70071;SDS011;57434;42.794;23.302;2022-12-18T03:42:24;15.65;;;7.05;;
70071;SDS011;57434;42.794;23.302;2022-12-18T03:43:35;12.85;;;6.25;;
70071;SDS011;57434;42.794;23.302;2022-12-18T03:46:46;14.73;;;6.65;;
70071;SDS011;57434;42.794;23.302;2022-12-18T03:50:37;13.30;;;5.55;;
70071;SDS011;57434;42.794;23.302;2022-12-18T03:51:54;15.35;;;7.35;;
70071;SDS011;57434;42.794;23.302;2022-12-18T03:54:23;15.50;;;6.43;;
70071;SDS011;57434;42.794;23.302;2022-12-18T03:55:27;17.70;;;8.20;;
70071;SDS011;57434;42.794;23.302;2022-12-18T03:56:36;16.30;;;7.10;;
70071;SDS011;57434;42.794;23.302;2022-12-18T03:57:43;14.27;;;6.60;;
70071;SDS011;57434;42.794;23.302;2022-12-18T03:58:47;16.80;;;7.82;;
70071;SDS011;57434;42.794;23.302;2022-12-18T03:59:52;20.38;;;8.10;;
70071;SDS011;57434;42.794;23.302;2022-12-18T04:00:59;16.48;;;7.82;;
70071;SDS011;57434;42.794;23.302;2022-12-18T04:02:04;15.60;;;7.55;;
70071;SDS011;57434;42.794;23.302;2022-12-18T04:03:08;20.05;;;8.65;;
70071;SDS011;57434;42.794;23.302;2022-12-18T04:04:12;19.90;;;8.18;;
70071;SDS011;57434;42.794;23.302;2022-12-18T04:05:16;21.05;;;9.35;;
70071;SDS011;57434;42.794;23.302;2022-12-18T04:06:18;19.33;;;7.90;;
70071;SDS011;57434;42.794;23.302;2022-12-18T04:07:21;18.08;;;8.05;;
70071;SDS011;57434;42.794;23.302;2022-12-18T04:08:24;20.00;;;7.63;;
70071;SDS011;57434;42.794;23.302;2022-12-18T04:09:27;24.17;;;10.00;;
70071;SDS011;57434;42.794;23.302;2022-12-18T04:10:31;20.20;;;9.07;;
70071;SDS011;57434;42.794;23.302;2022-12-18T04:11:33;18.15;;;8.63;;
70071;SDS011;57434;42.794;23.302;2022-12-18T04:12:36;19.77;;;9.13;;
70071;SDS011;57434;42.794;23.302;2022-12-18T04:13:39;19.95;;;9.38;;
70071;SDS011;57434;42.794;23.302;2022-12-18T04:14:41;19.98;;;8.98;;
70071;SDS011;57434;42.794;23.302;2022-12-18T04:15:43;21.48;;;8.95;;
70071;SDS011;57434;42.794;23.302;2022-12-18T04:16:45;22.15;;;9.75;;
70071;SDS011;57434;42.794;23.302;2022-12-18T04:17:47;19.60;;;9.05;;
70071;SDS011;57434;42.794;23.302;2022-12-18T04:18:50;21.50;;;9.13;;
70071;SDS011;57434;42.794;23.302;2022-12-18T04:19:52;19.05;;;8.43;;
70071;SDS011;57434;42.794;23.302;2022-12-18T04:20:54;17.33;;;7.45;;
70071;SDS011;57434;42.794;23.302;2022-12-18T04:21:56;20.13;;;9.13;;
70071;SDS011;57434;42.794;23.302;2022-12-18T04:22:57;18.92;;;8.38;;
70071;SDS011;57434;42.794;23.302;2022-12-18T04:23:59;19.23;;;8.90;;
70071;SDS011;57434;42.794;23.302;2022-12-18T04:25:01;20.50;;;8.50;;
70071;SDS011;57434;42.794;23.302;2022-12-18T04:26:03;15.63;;;7.57;;
70071;SDS011;57434;42.794;23.302;2022-12-18T04:27:06;16.40;;;7.72;;
70071;SDS011;57434;42.794;23.302;2022-12-18T04:28:08;18.80;;;8.07;;
70071;SDS011;57434;42.794;23.302;2022-12-18T04:29:09;18.73;;;8.60;;
70071;SDS011;57434;42.794;23.302;2022-12-18T04:30:11;18.67;;;8.15;;
70071;SDS011;57434;42.794;23.302;2022-12-18T04:31:13;19.60;;;9.20;;
70071;SDS011;57434;42.794;23.302;2022-12-18T04:32:15;17.25;;;9.05;;
70071;SDS011;57434;42.794;23.302;2022-12-18T04:33:17;19.75;;;9.15;;
70071;SDS011;57434;42.794;23.302;2022-12-18T04:34:19;17.98;;;9.23;;
70071;SDS011;57434;42.794;23.302;2022-12-18T04:35:21;20.65;;;9.70;;
70071;SDS011;57434;42.794;23.302;2022-12-18T04:36:23;23.83;;;10.35;;
70071;SDS011;57434;42.794;23.302;2022-12-18T04:37:25;18.42;;;8.27;;
70071;SDS011;57434;42.794;23.302;2022-12-18T04:38:26;21.25;;;9.57;;
70071;SDS011;57434;42.794;23.302;2022-12-18T04:39:28;19.87;;;9.37;;
70071;SDS011;57434;42.794;23.302;2022-12-18T04:40:30;22.00;;;9.60;;
70071;SDS011;57434;42.794;23.302;2022-12-18T04:41:32;17.38;;;7.43;;
70071;SDS011;57434;42.794;23.302;2022-12-18T04:42:33;18.13;;;8.45;;
70071;SDS011;57434;42.794;23.302;2022-12-18T04:43:35;27.48;;;10.23;;
70071;SDS011;57434;42.794;23.302;2022-12-18T04:44:38;33.10;;;11.70;;
70071;SDS011;57434;42.794;23.302;2022-12-18T04:45:40;32.78;;;12.05;;
70071;SDS011;57434;42.794;23.302;2022-12-18T04:46:41;27.50;;;10.48;;
70071;SDS011;57434;42.794;23.302;2022-12-18T04:47:43;24.83;;;10.77;;
70071;SDS011;57434;42.794;23.302;2022-12-18T04:48:45;27.05;;;11.57;;
70071;SDS011;57434;42.794;23.302;2022-12-18T04:49:48;22.10;;;9.50;;
70071;SDS011;57434;42.794;23.302;2022-12-18T04:50:49;20.65;;;9.02;;
70071;SDS011;57434;42.794;23.302;2022-12-18T04:51:51;23.67;;;11.10;;
70071;SDS011;57434;42.794;23.302;2022-12-18T04:52:53;22.60;;;9.55;;
70071;SDS011;57434;42.794;23.302;2022-12-18T04:53:56;22.73;;;9.60;;
70071;SDS011;57434;42.794;23.302;2022-12-18T04:54:58;20.80;;;9.73;;
70071;SDS011;57434;42.794;23.302;2022-12-18T04:56:06;22.10;;;10.10;;
70071;SDS011;57434;42.794;23.302;2022-12-18T04:57:10;23.42;;;9.40;;
70071;SDS011;57434;42.794;23.302;2022-12-18T04:58:11;24.40;;;9.18;;
70071;SDS011;57434;42.794;23.302;2022-12-18T04:59:13;18.58;;;8.80;;
70071;SDS011;57434;42.794;23.302;2022-12-18T05:00:15;26.20;;;11.33;;
70071;SDS011;57434;42.794;23.302;2022-12-18T05:01:17;25.92;;;11.57;;
70071;SDS011;57434;42.794;23.302;2022-12-18T05:02:20;21.98;;;10.45;;
70071;SDS011;57434;42.794;23.302;2022-12-18T05:03:22;21.50;;;10.65;;
70071;SDS011;57434;42.794;23.302;2022-12-18T05:04:24;27.40;;;11.20;;
70071;SDS011;57434;42.794;23.302;2022-12-18T05:05:25;19.67;;;9.15;;
70071;SDS011;57434;42.794;23.302;2022-12-18T05:06:27;25.00;;;11.40;;
70071;SDS011;57434;42.794;23.302;2022-12-18T05:07:29;27.45;;;11.63;;
70071;SDS011;57434;42.794;23.302;2022-12-18T05:08:31;22.17;;;10.32;;
70071;SDS011;57434;42.794;23.302;2022-12-18T05:09:33;21.65;;;9.98;;
70071;SDS011;57434;42.794;23.302;2022-12-18T05:10:35;18.50;;;8.63;;
70071;SDS011;57434;42.794;23.302;2022-12-18T05:11:38;25.95;;;10.57;;
70071;SDS011;57434;42.794;23.302;2022-12-18T05:12:40;20.90;;;9.48;;
70071;SDS011;57434;42.794;23.302;2022-12-18T05:13:42;23.00;;;10.73;;
70071;SDS011;57434;42.794;23.302;2022-12-18T05:14:45;20.58;;;9.05;;
70071;SDS011;57434;42.794;23.302;2022-12-18T05:15:51;19.38;;;8.82;;
70071;SDS011;57434;42.794;23.302;2022-12-18T05:16:54;21.13;;;8.98;;
70071;SDS011;57434;42.794;23.302;2022-12-18T05:18:01;21.92;;;9.52;;
70071;SDS011;57434;42.794;23.302;2022-12-18T05:19:04;24.52;;;9.75;;
70071;SDS011;57434;42.794;23.302;2022-12-18T05:20:06;20.23;;;8.35;;
70071;SDS011;57434;42.794;23.302;2022-12-18T05:21:08;23.70;;;9.27;;
70071;SDS011;57434;42.794;23.302;2022-12-18T05:22:10;23.08;;;8.98;;
70071;SDS011;57434;42.794;23.302;2022-12-18T05:23:11;21.67;;;9.45;;
70071;SDS011;57434;42.794;23.302;2022-12-18T05:24:13;21.00;;;9.02;;
70071;SDS011;57434;42.794;23.302;2022-12-18T05:25:16;23.70;;;10.60;;
70071;SDS011;57434;42.794;23.302;2022-12-18T05:26:18;21.20;;;9.25;;
70071;SDS011;57434;42.794;23.302;2022-12-18T05:27:20;20.95;;;10.52;;
70071;SDS011;57434;42.794;23.302;2022-12-18T05:28:22;22.15;;;10.00;;
70071;SDS011;57434;42.794;23.302;2022-12-18T05:29:24;18.05;;;8.40;;
70071;SDS011;57434;42.794;23.302;2022-12-18T05:30:26;21.15;;;8.60;;
70071;SDS011;57434;42.794;23.302;2022-12-18T05:31:28;22.67;;;8.93;;
70071;SDS011;57434;42.794;23.302;2022-12-18T05:32:36;19.38;;;8.55;;
70071;SDS011;57434;42.794;23.302;2022-12-18T05:33:38;19.98;;;8.43;;
70071;SDS011;57434;42.794;23.302;2022-12-18T05:34:40;22.60;;;10.50;;
70071;SDS011;57434;42.794;23.302;2022-12-18T05:35:42;23.58;;;9.60;;
70071;SDS011;57434;42.794;23.302;2022-12-18T05:36:45;15.20;;;7.38;;
70071;SDS011;57434;42.794;23.302;2022-12-18T05:37:46;18.58;;;7.78;;
70071;SDS011;57434;42.794;23.302;2022-12-18T05:38:48;19.67;;;9.27;;
70071;SDS011;57434;42.794;23.302;2022-12-18T05:39:50;23.92;;;9.75;;
70071;SDS011;57434;42.794;23.302;2022-12-18T05:40:52;22.42;;;9.35;;
70071;SDS011;57434;42.794;23.302;2022-12-18T05:41:55;22.37;;;8.63;;
70071;SDS011;57434;42.794;23.302;2022-12-18T05:42:56;16.65;;;6.97;;
70071;SDS011;57434;42.794;23.302;2022-12-18T05:43:58;27.23;;;11.85;;
70071;SDS011;57434;42.794;23.302;2022-12-18T05:45:00;22.23;;;10.27;;
70071;SDS011;57434;42.794;23.302;2022-12-18T05:46:05;18.40;;;7.80;;
70071;SDS011;57434;42.794;23.302;2022-12-18T05:47:17;23.60;;;8.70;;
70071;SDS011;57434;42.794;23.302;2022-12-18T05:48:19;18.02;;;7.97;;
70071;SDS011;57434;42.794;23.302;2022-12-18T05:49:22;20.58;;;9.18;;
70071;SDS011;57434;42.794;23.302;2022-12-18T05:50:23;19.48;;;8.65;;
70071;SDS011;57434;42.794;23.302;2022-12-18T05:51:25;25.92;;;11.23;;
70071;SDS011;57434;42.794;23.302;2022-12-18T05:52:27;26.40;;;10.67;;
70071;SDS011;57434;42.794;23.302;2022-12-18T05:53:29;26.33;;;10.82;;
70071;SDS011;57434;42.794;23.302;2022-12-18T05:54:31;20.33;;;9.57;;
70071;SDS011;57434;42.794;23.302;2022-12-18T05:55:36;22.25;;;8.82;;
70071;SDS011;57434;42.794;23.302;2022-12-18T05:56:40;21.88;;;9.48;;
70071;SDS011;57434;42.794;23.302;2022-12-18T05:57:48;17.35;;;8.20;;
70071;SDS011;57434;42.794;23.302;2022-12-18T05:58:51;21.25;;;9.40;;
70071;SDS011;57434;42.794;23.302;2022-12-18T05:59:54;19.90;;;7.97;;
70071;SDS011;57434;42.794;23.302;2022-12-18T06:00:56;19.05;;;8.38;;
70071;SDS011;57434;42.794;23.302;2022-12-18T06:01:58;19.38;;;8.52;;
70071;SDS011;57434;42.794;23.302;2022-12-18T06:03:00;22.27;;;9.90;;
70071;SDS011;57434;42.794;23.302;2022-12-18T06:04:03;25.83;;;11.05;;
70071;SDS011;57434;42.794;23.302;2022-12-18T06:05:05;21.83;;;9.10;;
70071;SDS011;57434;42.794;23.302;2022-12-18T06:07:15;18.75;;;8.85;;
70071;SDS011;57434;42.794;23.302;2022-12-18T06:08:17;17.90;;;8.38;;
70071;SDS011;57434;42.794;23.302;2022-12-18T06:09:18;26.48;;;11.27;;
70071;SDS011;57434;42.794;23.302;2022-12-18T06:10:20;19.63;;;8.00;;
70071;SDS011;57434;42.794;23.302;2022-12-18T06:11:23;19.90;;;8.80;;
70071;SDS011;57434;42.794;23.302;2022-12-18T06:12:26;21.23;;;9.38;;
70071;SDS011;57434;42.794;23.302;2022-12-18T06:13:28;22.13;;;10.67;;
70071;SDS011;57434;42.794;23.302;2022-12-18T06:14:30;21.33;;;9.90;;
70071;SDS011;57434;42.794;23.302;2022-12-18T06:15:31;21.25;;;10.18;;
70071;SDS011;57434;42.794;23.302;2022-12-18T06:16:34;19.15;;;8.65;;
70071;SDS011;57434;42.794;23.302;2022-12-18T06:17:35;25.55;;;9.32;;
70071;SDS011;57434;42.794;23.302;2022-12-18T06:18:38;21.73;;;10.27;;
70071;SDS011;57434;42.794;23.302;2022-12-18T06:19:39;21.00;;;9.25;;
70071;SDS011;57434;42.794;23.302;2022-12-18T06:20:41;19.20;;;8.82;;
70071;SDS011;57434;42.794;23.302;2022-12-18T06:21:43;24.05;;;9.00;;
70071;SDS011;57434;42.794;23.302;2022-12-18T06:22:45;25.85;;;9.93;;
70071;SDS011;57434;42.794;23.302;2022-12-18T06:23:46;23.13;;;9.90;;
70071;SDS011;57434;42.794;23.302;2022-12-18T06:24:48;19.70;;;8.75;;
70071;SDS011;57434;42.794;23.302;2022-12-18T06:25:50;19.45;;;8.80;;
70071;SDS011;57434;42.794;23.302;2022-12-18T06:26:52;23.90;;;10.73;;
70071;SDS011;57434;42.794;23.302;2022-12-18T06:27:54;22.83;;;10.93;;
70071;SDS011;57434;42.794;23.302;2022-12-18T06:28:55;23.75;;;9.00;;
70071;SDS011;57434;42.794;23.302;2022-12-18T06:29:58;19.85;;;8.82;;
70071;SDS011;57434;42.794;23.302;2022-12-18T06:31:00;24.13;;;11.30;;
70071;SDS011;57434;42.794;23.302;2022-12-18T06:32:01;23.20;;;9.88;;
70071;SDS011;57434;42.794;23.302;2022-12-18T06:33:03;24.00;;;10.85;;
70071;SDS011;57434;42.794;23.302;2022-12-18T06:34:05;23.67;;;10.33;;
70071;SDS011;57434;42.794;23.302;2022-12-18T06:35:07;19.45;;;8.23;;
70071;SDS011;57434;42.794;23.302;2022-12-18T06:36:10;23.42;;;9.38;;
70071;SDS011;57434;42.794;23.302;2022-12-18T06:37:13;24.63;;;9.88;;
70071;SDS011;57434;42.794;23.302;2022-12-18T06:38:15;22.60;;;9.93;;
70071;SDS011;57434;42.794;23.302;2022-12-18T06:39:16;22.27;;;9.15;;
70071;SDS011;57434;42.794;23.302;2022-12-18T06:40:18;19.88;;;9.13;;
70071;SDS011;57434;42.794;23.302;2022-12-18T06:41:20;22.13;;;11.02;;
70071;SDS011;57434;42.794;23.302;2022-12-18T06:42:23;20.00;;;9.18;;
70071;SDS011;57434;42.794;23.302;2022-12-18T06:43:25;23.42;;;8.23;;